SWA4042 KAMA-KAUS
Flight info
| Callsign | SWA4042 |
|---|---|
| Flight time | 0h 57m |
| Altitude | 37000 |
| Route | TURKI PRTZY LAIKS4 |
| Aircraft | B738/M-SDE2E3FGHIRWXY/LB1 |
Departure
| Time | 2026-04-26 19:57 |
|---|---|
| Airport | Rick Husband Amarillo International Airport (KAMA) |
Arrival
| Time | 2026-04-26 20:54 |
|---|---|
| Airport | Austin Bergstrom International Airport (KAUS) |
| Time | Latitude | Longitude | Altitude | Speed | Heading |
|---|---|---|---|---|---|
| 2026-04-26 19:35 | 35.21969 | -101.70569 | 3607 ft | 0 kts | 184° |
| 2026-04-26 19:47 | 35.21972 | -101.70569 | 3607 ft | 3 kts | 184° |
| 2026-04-26 19:48 | 35.21995 | -101.70567 | 3606 ft | 3 kts | 185° |
| 2026-04-26 19:48 | 35.22018 | -101.70564 | 3607 ft | 3 kts | 186° |
| 2026-04-26 19:48 | 35.22041 | -101.70560 | 3606 ft | 3 kts | 188° |
| 2026-04-26 19:48 | 35.22063 | -101.70556 | 3607 ft | 3 kts | 192° |
| 2026-04-26 19:49 | 35.22086 | -101.70549 | 3607 ft | 3 kts | 202° |
| 2026-04-26 19:49 | 35.22103 | -101.70536 | 3606 ft | 3 kts | 242° |
| 2026-04-26 19:49 | 35.22107 | -101.70527 | 3607 ft | 0 kts | 314° |
| 2026-04-26 19:52 | 35.22108 | -101.70528 | 3607 ft | 1 kts | 314° |
| 2026-04-26 19:52 | 35.22125 | -101.70534 | 3607 ft | 5 kts | 2° |
| 2026-04-26 19:52 | 35.22170 | -101.70498 | 3606 ft | 11 kts | 43° |
| 2026-04-26 19:53 | 35.22235 | -101.70417 | 3607 ft | 16 kts | 44° |
| 2026-04-26 19:53 | 35.22334 | -101.70424 | 3607 ft | 14 kts | 4° |
| 2026-04-26 19:53 | 35.22411 | -101.70362 | 3607 ft | 13 kts | 41° |
| 2026-04-26 19:53 | 35.22471 | -101.70281 | 3607 ft | 13 kts | 60° |
| 2026-04-26 19:54 | 35.22531 | -101.70202 | 3606 ft | 12 kts | 45° |
| 2026-04-26 19:54 | 35.22595 | -101.70122 | 3607 ft | 15 kts | 45° |
| 2026-04-26 19:54 | 35.22680 | -101.70018 | 3607 ft | 18 kts | 45° |
| 2026-04-26 19:54 | 35.22766 | -101.69912 | 3607 ft | 17 kts | 45° |
| 2026-04-26 19:55 | 35.22856 | -101.69826 | 3607 ft | 17 kts | 3° |
| 2026-04-26 19:55 | 35.22953 | -101.69891 | 3607 ft | 16 kts | 315° |
| 2026-04-26 19:55 | 35.23032 | -101.69984 | 3608 ft | 15 kts | 316° |
| 2026-04-26 19:55 | 35.23040 | -101.70077 | 3607 ft | 12 kts | 238° |
| 2026-04-26 19:56 | 35.22931 | -101.70218 | 3605 ft | 50 kts | 226° |
| 2026-04-26 19:56 | 35.22526 | -101.70722 | 3607 ft | 114 kts | 226° |
| 2026-04-26 19:56 | 35.21841 | -101.71585 | 3624 ft | 165 kts | 225° |
| 2026-04-26 19:56 | 35.21004 | -101.72606 | 4205 ft | 170 kts | 223° |
| 2026-04-26 19:57 | 35.20068 | -101.73577 | 4800 ft | 184 kts | 211° |
| 2026-04-26 19:57 | 35.18826 | -101.74009 | 5463 ft | 194 kts | 176° |
| 2026-04-26 19:57 | 35.17524 | -101.73369 | 5886 ft | 215 kts | 150° |
| 2026-04-26 19:57 | 35.16181 | -101.72328 | 6085 ft | 241 kts | 149° |
| 2026-04-26 19:58 | 35.14746 | -101.71184 | 6525 ft | 254 kts | 149° |
| 2026-04-26 19:58 | 35.13238 | -101.69977 | 7071 ft | 269 kts | 149° |
| 2026-04-26 19:58 | 35.11619 | -101.68689 | 7609 ft | 283 kts | 149° |
| 2026-04-26 19:58 | 35.09952 | -101.67370 | 8428 ft | 287 kts | 150° |
| 2026-04-26 19:59 | 35.08264 | -101.66036 | 9176 ft | 292 kts | 151° |
| 2026-04-26 19:59 | 35.06535 | -101.64682 | 9909 ft | 297 kts | 151° |
| 2026-04-26 19:59 | 35.04767 | -101.63307 | 10470 ft | 310 kts | 152° |
| 2026-04-26 19:59 | 35.02877 | -101.61847 | 10648 ft | 333 kts | 152° |
| 2026-04-26 20:00 | 35.00870 | -101.60296 | 11092 ft | 347 kts | 152° |
| 2026-04-26 20:00 | 34.98817 | -101.58704 | 11797 ft | 351 kts | 153° |
| 2026-04-26 20:00 | 34.96750 | -101.57099 | 12541 ft | 354 kts | 153° |
| 2026-04-26 20:00 | 34.94659 | -101.55480 | 13270 ft | 357 kts | 153° |
| 2026-04-26 20:01 | 34.92568 | -101.53866 | 13942 ft | 363 kts | 153° |
| 2026-04-26 20:01 | 34.90428 | -101.52215 | 14674 ft | 366 kts | 153° |
| 2026-04-26 20:01 | 34.88270 | -101.50551 | 15437 ft | 367 kts | 154° |
| 2026-04-26 20:01 | 34.86101 | -101.48878 | 16130 ft | 371 kts | 154° |
| 2026-04-26 20:02 | 34.83903 | -101.47188 | 16740 ft | 376 kts | 154° |
| 2026-04-26 20:02 | 34.81670 | -101.45473 | 17337 ft | 381 kts | 154° |
| 2026-04-26 20:02 | 34.79427 | -101.43746 | 18031 ft | 382 kts | 154° |
| 2026-04-26 20:02 | 34.78669 | -101.43162 | 18265 ft | 382 kts | 154° |
| 2026-04-26 20:03 | 34.74891 | -101.40265 | 19181 ft | 391 kts | 154° |
| 2026-04-26 20:03 | 34.72574 | -101.38489 | 19741 ft | 396 kts | 155° |
| 2026-04-26 20:03 | 34.70235 | -101.36697 | 20327 ft | 399 kts | 154° |
| 2026-04-26 20:03 | 34.67869 | -101.34884 | 20865 ft | 403 kts | 154° |
| 2026-04-26 20:04 | 34.65484 | -101.33057 | 21363 ft | 408 kts | 154° |
| 2026-04-26 20:04 | 34.63884 | -101.31832 | 21716 ft | 410 kts | 155° |
| 2026-04-26 20:04 | 34.60665 | -101.29370 | 22411 ft | 415 kts | 155° |
| 2026-04-26 20:04 | 34.58213 | -101.27493 | 22868 ft | 419 kts | 154° |
| 2026-04-26 20:05 | 34.55736 | -101.25602 | 23318 ft | 422 kts | 155° |
| 2026-04-26 20:05 | 34.53237 | -101.23697 | 23786 ft | 426 kts | 155° |
| 2026-04-26 20:05 | 34.51537 | -101.22402 | 24090 ft | 428 kts | 155° |
| 2026-04-26 20:05 | 34.48175 | -101.19840 | 24670 ft | 432 kts | 155° |
| 2026-04-26 20:06 | 34.46488 | -101.18555 | 24975 ft | 434 kts | 155° |
| 2026-04-26 20:06 | 34.43923 | -101.16602 | 25402 ft | 437 kts | 155° |
| 2026-04-26 20:06 | 34.41335 | -101.14634 | 25794 ft | 441 kts | 155° |
| 2026-04-26 20:06 | 34.38727 | -101.12652 | 26207 ft | 443 kts | 155° |
| 2026-04-26 20:07 | 34.36105 | -101.10660 | 26604 ft | 446 kts | 155° |
| 2026-04-26 20:07 | 34.33473 | -101.08662 | 26989 ft | 448 kts | 155° |
| 2026-04-26 20:07 | 34.30825 | -101.06655 | 27367 ft | 451 kts | 155° |
| 2026-04-26 20:07 | 34.28147 | -101.04666 | 27726 ft | 452 kts | 157° |
| 2026-04-26 20:08 | 34.25408 | -101.02779 | 28042 ft | 454 kts | 159° |
| 2026-04-26 20:08 | 34.22635 | -101.00940 | 28389 ft | 456 kts | 159° |
| 2026-04-26 20:08 | 34.19835 | -100.99104 | 28756 ft | 457 kts | 159° |
| 2026-04-26 20:08 | 34.17030 | -100.97262 | 29106 ft | 460 kts | 159° |
| 2026-04-26 20:09 | 34.14213 | -100.95401 | 29435 ft | 462 kts | 159° |
| 2026-04-26 20:09 | 34.11391 | -100.93524 | 29743 ft | 464 kts | 159° |
| 2026-04-26 20:09 | 34.08555 | -100.91631 | 30034 ft | 467 kts | 159° |
| 2026-04-26 20:09 | 34.05750 | -100.89754 | 30321 ft | 469 kts | 159° |
| 2026-04-26 20:10 | 34.02887 | -100.87836 | 30566 ft | 472 kts | 159° |
| 2026-04-26 20:10 | 34.00001 | -100.85903 | 30774 ft | 476 kts | 159° |
| 2026-04-26 20:10 | 33.97097 | -100.83960 | 31019 ft | 478 kts | 159° |
| 2026-04-26 20:10 | 33.94185 | -100.82011 | 31354 ft | 478 kts | 159° |
| 2026-04-26 20:11 | 33.91282 | -100.80069 | 31752 ft | 477 kts | 159° |
| 2026-04-26 20:11 | 33.88382 | -100.78131 | 32106 ft | 476 kts | 159° |
| 2026-04-26 20:11 | 33.85480 | -100.76196 | 32388 ft | 477 kts | 159° |
| 2026-04-26 20:12 | 33.79661 | -100.72323 | 32981 ft | 478 kts | 159° |
| 2026-04-26 20:12 | 33.76755 | -100.70390 | 33314 ft | 477 kts | 160° |
| 2026-04-26 20:12 | 33.73883 | -100.68482 | 33593 ft | 478 kts | 160° |
| 2026-04-26 20:12 | 33.70972 | -100.66550 | 33885 ft | 478 kts | 160° |
| 2026-04-26 20:13 | 33.68052 | -100.64613 | 34098 ft | 480 kts | 160° |
| 2026-04-26 20:13 | 33.65128 | -100.62675 | 34356 ft | 480 kts | 160° |
| 2026-04-26 20:13 | 33.62201 | -100.60735 | 34701 ft | 478 kts | 160° |
| 2026-04-26 20:13 | 33.59302 | -100.58811 | 35114 ft | 475 kts | 160° |
| 2026-04-26 20:14 | 33.56412 | -100.56897 | 35375 ft | 475 kts | 160° |
| 2026-04-26 20:14 | 33.53505 | -100.54979 | 35584 ft | 476 kts | 160° |
| 2026-04-26 20:14 | 33.50595 | -100.53059 | 35814 ft | 476 kts | 160° |
| 2026-04-26 20:14 | 33.47696 | -100.51147 | 36099 ft | 475 kts | 161° |
| 2026-04-26 20:15 | 33.44845 | -100.49261 | 36412 ft | 473 kts | 161° |
| 2026-04-26 20:15 | 33.41960 | -100.47360 | 36620 ft | 474 kts | 161° |
| 2026-04-26 20:15 | 33.39071 | -100.45461 | 36797 ft | 473 kts | 161° |
| 2026-04-26 20:16 | 33.33301 | -100.41670 | 36788 ft | 471 kts | 161° |
| 2026-04-26 20:16 | 33.27624 | -100.37934 | 36779 ft | 462 kts | 161° |
| 2026-04-26 20:17 | 33.21982 | -100.34238 | 36794 ft | 462 kts | 161° |
| 2026-04-26 20:17 | 33.16339 | -100.30549 | 36800 ft | 463 kts | 161° |
| 2026-04-26 20:18 | 33.10684 | -100.26857 | 36800 ft | 463 kts | 161° |
| 2026-04-26 20:18 | 33.05029 | -100.23166 | 36793 ft | 464 kts | 161° |
| 2026-04-26 20:19 | 32.99359 | -100.19471 | 36798 ft | 465 kts | 161° |
| 2026-04-26 20:19 | 32.93666 | -100.15767 | 36798 ft | 467 kts | 162° |
| 2026-04-26 20:20 | 32.87950 | -100.12052 | 36800 ft | 469 kts | 162° |
| 2026-04-26 20:20 | 32.82258 | -100.08360 | 36799 ft | 470 kts | 162° |
| 2026-04-26 20:21 | 32.76511 | -100.04634 | 36792 ft | 471 kts | 161° |
| 2026-04-26 20:21 | 32.70746 | -100.00903 | 36794 ft | 471 kts | 162° |
| 2026-04-26 20:22 | 32.64982 | -99.97179 | 36779 ft | 473 kts | 161° |
| 2026-04-26 20:22 | 32.59196 | -99.93448 | 36787 ft | 473 kts | 161° |
| 2026-04-26 20:23 | 32.53402 | -99.89713 | 36769 ft | 474 kts | 161° |
| 2026-04-26 20:23 | 32.47607 | -99.85984 | 36768 ft | 474 kts | 161° |
| 2026-04-26 20:24 | 32.41818 | -99.82227 | 36758 ft | 474 kts | 161° |
| 2026-04-26 20:24 | 32.36065 | -99.78479 | 36761 ft | 475 kts | 161° |
| 2026-04-26 20:25 | 32.30277 | -99.74714 | 36771 ft | 474 kts | 161° |
| 2026-04-26 20:25 | 32.24496 | -99.70962 | 36780 ft | 474 kts | 161° |
| 2026-04-26 20:26 | 32.18709 | -99.67214 | 36787 ft | 474 kts | 161° |
| 2026-04-26 20:26 | 32.12934 | -99.63479 | 36806 ft | 473 kts | 162° |
| 2026-04-26 20:27 | 32.07160 | -99.59749 | 36811 ft | 472 kts | 162° |
| 2026-04-26 20:27 | 32.01393 | -99.56031 | 36817 ft | 472 kts | 162° |
| 2026-04-26 20:28 | 31.95667 | -99.52346 | 36830 ft | 472 kts | 162° |
| 2026-04-26 20:28 | 31.89898 | -99.48636 | 36842 ft | 472 kts | 162° |
| 2026-04-26 20:28 | 31.87006 | -99.46780 | 36652 ft | 476 kts | 162° |
| 2026-04-26 20:29 | 31.84087 | -99.44910 | 36175 ft | 477 kts | 161° |
| 2026-04-26 20:29 | 31.81181 | -99.43044 | 35658 ft | 476 kts | 161° |
| 2026-04-26 20:29 | 31.78267 | -99.41176 | 35070 ft | 477 kts | 161° |
| 2026-04-26 20:29 | 31.75352 | -99.39309 | 34486 ft | 477 kts | 161° |
| 2026-04-26 20:30 | 31.72432 | -99.37441 | 33891 ft | 478 kts | 160° |
| 2026-04-26 20:30 | 31.69532 | -99.35582 | 33640 ft | 470 kts | 160° |
| 2026-04-26 20:30 | 31.66685 | -99.33755 | 33551 ft | 461 kts | 160° |
| 2026-04-26 20:30 | 31.63910 | -99.31972 | 33524 ft | 448 kts | 161° |
| 2026-04-26 20:31 | 31.61208 | -99.30241 | 33187 ft | 439 kts | 161° |
| 2026-04-26 20:31 | 31.58496 | -99.28520 | 32045 ft | 448 kts | 161° |
| 2026-04-26 20:31 | 31.55712 | -99.26764 | 30703 ft | 461 kts | 160° |
| 2026-04-26 20:31 | 31.52885 | -99.24968 | 30090 ft | 457 kts | 159° |
| 2026-04-26 20:32 | 31.50106 | -99.23191 | 29566 ft | 455 kts | 159° |
| 2026-04-26 20:32 | 31.47333 | -99.21423 | 29109 ft | 451 kts | 159° |
| 2026-04-26 20:32 | 31.44585 | -99.19675 | 28658 ft | 448 kts | 159° |
| 2026-04-26 20:32 | 31.41899 | -99.17968 | 28300 ft | 441 kts | 159° |
| 2026-04-26 20:33 | 31.39212 | -99.16262 | 27946 ft | 440 kts | 159° |
| 2026-04-26 20:33 | 31.36495 | -99.14545 | 27590 ft | 446 kts | 159° |
| 2026-04-26 20:33 | 31.33751 | -99.12812 | 27209 ft | 449 kts | 159° |
| 2026-04-26 20:33 | 31.31011 | -99.11076 | 26827 ft | 446 kts | 158° |
| 2026-04-26 20:34 | 31.28286 | -99.09348 | 26451 ft | 444 kts | 158° |
| 2026-04-26 20:34 | 31.25580 | -99.07632 | 26086 ft | 441 kts | 158° |
| 2026-04-26 20:34 | 31.22892 | -99.05930 | 25719 ft | 438 kts | 158° |
| 2026-04-26 20:34 | 31.20218 | -99.04240 | 25350 ft | 436 kts | 158° |
| 2026-04-26 20:35 | 31.17552 | -99.02555 | 24984 ft | 434 kts | 158° |
| 2026-04-26 20:35 | 31.14898 | -99.00880 | 24626 ft | 432 kts | 158° |
| 2026-04-26 20:35 | 31.12262 | -98.99217 | 24270 ft | 430 kts | 158° |
| 2026-04-26 20:35 | 31.09668 | -98.97582 | 23921 ft | 428 kts | 158° |
| 2026-04-26 20:36 | 31.07053 | -98.95934 | 23563 ft | 426 kts | 157° |
| 2026-04-26 20:36 | 31.04447 | -98.94294 | 23207 ft | 424 kts | 157° |
| 2026-04-26 20:36 | 31.01851 | -98.92660 | 22852 ft | 422 kts | 157° |
| 2026-04-26 20:36 | 30.99275 | -98.91040 | 22499 ft | 420 kts | 157° |
| 2026-04-26 20:37 | 30.96707 | -98.89425 | 22141 ft | 418 kts | 157° |
| 2026-04-26 20:37 | 30.94152 | -98.87821 | 21793 ft | 415 kts | 157° |
| 2026-04-26 20:37 | 30.91621 | -98.86232 | 21447 ft | 412 kts | 157° |
| 2026-04-26 20:37 | 30.89104 | -98.84653 | 21106 ft | 409 kts | 157° |
| 2026-04-26 20:38 | 30.86608 | -98.83088 | 20763 ft | 406 kts | 157° |
| 2026-04-26 20:38 | 30.84136 | -98.81539 | 20429 ft | 403 kts | 157° |
| 2026-04-26 20:38 | 30.81771 | -98.79789 | 20059 ft | 408 kts | 142° |
| 2026-04-26 20:38 | 30.80014 | -98.77188 | 19693 ft | 414 kts | 121° |
| 2026-04-26 20:39 | 30.79036 | -98.74006 | 19074 ft | 423 kts | 101° |
| 2026-04-26 20:39 | 30.78773 | -98.71760 | 18744 ft | 423 kts | 98° |
| 2026-04-26 20:39 | 30.78352 | -98.67260 | 17957 ft | 420 kts | 97° |
| 2026-04-26 20:39 | 30.78048 | -98.63913 | 17380 ft | 412 kts | 97° |
| 2026-04-26 20:40 | 30.77735 | -98.60630 | 16925 ft | 403 kts | 97° |
| 2026-04-26 20:40 | 30.77412 | -98.57406 | 16398 ft | 397 kts | 98° |
| 2026-04-26 20:40 | 30.77084 | -98.54240 | 15867 ft | 392 kts | 98° |
| 2026-04-26 20:40 | 30.76755 | -98.51116 | 15341 ft | 386 kts | 98° |
| 2026-04-26 20:41 | 30.76430 | -98.48036 | 14815 ft | 381 kts | 98° |
| 2026-04-26 20:41 | 30.76112 | -98.45030 | 14310 ft | 376 kts | 98° |
| 2026-04-26 20:41 | 30.75580 | -98.42093 | 13832 ft | 367 kts | 114° |
| 2026-04-26 20:41 | 30.74527 | -98.39441 | 13514 ft | 357 kts | 117° |
| 2026-04-26 20:42 | 30.73463 | -98.36839 | 13131 ft | 354 kts | 117° |
| 2026-04-26 20:42 | 30.72419 | -98.34260 | 12775 ft | 350 kts | 117° |
| 2026-04-26 20:42 | 30.71395 | -98.31703 | 12418 ft | 347 kts | 117° |
| 2026-04-26 20:42 | 30.70380 | -98.29151 | 12069 ft | 348 kts | 117° |
| 2026-04-26 20:43 | 30.69365 | -98.26593 | 11717 ft | 349 kts | 116° |
| 2026-04-26 20:43 | 30.68353 | -98.24034 | 11346 ft | 347 kts | 116° |
| 2026-04-26 20:43 | 30.67350 | -98.21496 | 11000 ft | 343 kts | 116° |
| 2026-04-26 20:43 | 30.66369 | -98.19011 | 10651 ft | 333 kts | 117° |
| 2026-04-26 20:44 | 30.65423 | -98.16621 | 10292 ft | 326 kts | 117° |
| 2026-04-26 20:44 | 30.64492 | -98.14274 | 10077 ft | 313 kts | 117° |
| 2026-04-26 20:44 | 30.63602 | -98.12028 | 9950 ft | 296 kts | 117° |
| 2026-04-26 20:44 | 30.62739 | -98.09852 | 9387 ft | 298 kts | 117° |
| 2026-04-26 20:45 | 30.61882 | -98.07695 | 8985 ft | 293 kts | 117° |
| 2026-04-26 20:45 | 30.61038 | -98.05572 | 8667 ft | 285 kts | 117° |
| 2026-04-26 20:45 | 30.60208 | -98.03488 | 8350 ft | 285 kts | 117° |
| 2026-04-26 20:45 | 30.59382 | -98.01411 | 8048 ft | 283 kts | 117° |
| 2026-04-26 20:46 | 30.58556 | -97.99339 | 7719 ft | 283 kts | 117° |
| 2026-04-26 20:46 | 30.57734 | -97.97279 | 7395 ft | 280 kts | 117° |
| 2026-04-26 20:46 | 30.56921 | -97.95238 | 7083 ft | 278 kts | 118° |
| 2026-04-26 20:46 | 30.56071 | -97.93239 | 6772 ft | 273 kts | 124° |
| 2026-04-26 20:47 | 30.54948 | -97.91498 | 6457 ft | 266 kts | 133° |
| 2026-04-26 20:47 | 30.54554 | -97.90973 | 6369 ft | 265 kts | 134° |
| 2026-04-26 20:47 | 30.52529 | -97.88320 | 5894 ft | 259 kts | 133° |
| 2026-04-26 20:47 | 30.51352 | -97.86745 | 5595 ft | 256 kts | 133° |
| 2026-04-26 20:48 | 30.50199 | -97.85177 | 5302 ft | 254 kts | 133° |
| 2026-04-26 20:48 | 30.49055 | -97.83626 | 5116 ft | 253 kts | 133° |
| 2026-04-26 20:48 | 30.47899 | -97.82057 | 5081 ft | 257 kts | 133° |
| 2026-04-26 20:48 | 30.46767 | -97.80516 | 5044 ft | 252 kts | 132° |
| 2026-04-26 20:49 | 30.45649 | -97.78991 | 5032 ft | 245 kts | 133° |
| 2026-04-26 20:49 | 30.44569 | -97.77519 | 5020 ft | 234 kts | 133° |
| 2026-04-26 20:49 | 30.43536 | -97.76114 | 5014 ft | 223 kts | 133° |
| 2026-04-26 20:49 | 30.42467 | -97.74852 | 4911 ft | 220 kts | 147° |
| 2026-04-26 20:50 | 30.41139 | -97.73956 | 4612 ft | 222 kts | 152° |
| 2026-04-26 20:50 | 30.39796 | -97.73054 | 4323 ft | 224 kts | 150° |
| 2026-04-26 20:50 | 30.38449 | -97.72124 | 4031 ft | 226 kts | 150° |
| 2026-04-26 20:50 | 30.37096 | -97.71182 | 3740 ft | 227 kts | 150° |
| 2026-04-26 20:51 | 30.35736 | -97.70231 | 3431 ft | 229 kts | 150° |
| 2026-04-26 20:51 | 30.34361 | -97.69268 | 3111 ft | 231 kts | 150° |
| 2026-04-26 20:51 | 30.32959 | -97.68390 | 2788 ft | 229 kts | 162° |
| 2026-04-26 20:51 | 30.31399 | -97.68286 | 2503 ft | 223 kts | 182° |
| 2026-04-26 20:52 | 30.30386 | -97.68268 | 2303 ft | 218 kts | 172° |
| 2026-04-26 20:52 | 30.28904 | -97.68093 | 2049 ft | 208 kts | 177° |
| 2026-04-26 20:52 | 30.27495 | -97.68092 | 1780 ft | 198 kts | 178° |
| 2026-04-26 20:52 | 30.25713 | -97.68053 | 1452 ft | 188 kts | 178° |
| 2026-04-26 20:53 | 30.24839 | -97.68027 | 1280 ft | 183 kts | 178° |
| 2026-04-26 20:53 | 30.23630 | -97.67997 | 1033 ft | 166 kts | 178° |
| 2026-04-26 20:53 | 30.22528 | -97.67968 | 821 ft | 154 kts | 178° |
| 2026-04-26 20:53 | 30.21467 | -97.67941 | 599 ft | 154 kts | 178° |
| 2026-04-26 20:54 | 30.20426 | -97.67908 | 527 ft | 139 kts | 177° |
| 2026-04-26 20:54 | 30.19631 | -97.67888 | 525 ft | 66 kts | 178° |
| 2026-04-26 20:54 | 30.19409 | -97.67761 | 527 ft | 25 kts | 78° |
| 2026-04-26 20:54 | 30.19396 | -97.67594 | 527 ft | 20 kts | 92° |
| 2026-04-26 20:55 | 30.19398 | -97.67437 | 526 ft | 15 kts | 88° |
| 2026-04-26 20:55 | 30.19431 | -97.67332 | 526 ft | 14 kts | 28° |
| 2026-04-26 20:55 | 30.19534 | -97.67325 | 526 ft | 16 kts | 0° |
| 2026-04-26 20:55 | 30.19665 | -97.67324 | 526 ft | 21 kts | 0° |
| 2026-04-26 20:56 | 30.19832 | -97.67323 | 526 ft | 26 kts | 0° |
| 2026-04-26 20:56 | 30.19980 | -97.67311 | 526 ft | 15 kts | 50° |
| 2026-04-26 20:56 | 30.20046 | -97.67191 | 526 ft | 20 kts | 58° |
| 2026-04-26 20:56 | 30.20060 | -97.67057 | 526 ft | 15 kts | 97° |
| 2026-04-26 20:57 | 30.20066 | -97.66919 | 526 ft | 18 kts | 82° |
| 2026-04-26 20:57 | 30.20073 | -97.66811 | 526 ft | 11 kts | 97° |
| 2026-04-26 20:57 | 30.20068 | -97.66769 | 526 ft | 4 kts | 97° |
| 2026-04-26 20:57 | 30.20064 | -97.66742 | 526 ft | 1 kts | 101° |
| 2026-04-26 20:58 | 30.20061 | -97.66723 | 526 ft | 3 kts | 101° |
| 2026-04-26 20:58 | 30.20058 | -97.66676 | 526 ft | 8 kts | 83° |
| 2026-04-26 20:58 | 30.20070 | -97.66590 | 526 ft | 13 kts | 79° |
| 2026-04-26 20:58 | 30.20095 | -97.66534 | 526 ft | 7 kts | 17° |
| 2026-04-26 20:59 | 30.20143 | -97.66548 | 526 ft | 6 kts | 340° |
| 2026-04-26 20:59 | 30.20157 | -97.66554 | 526 ft | 0 kts | 339° |